Time;durP1;ratioP1;P1;durP2;ratioP2;P2;SDS_P1;SDS_P2;PMS_P1;PMS_P2;Temp;Humidity;BMP_temperature;BMP_pressure;BME280_temperature;BME280_humidity;BME280_pressure;Samples;Min_cycle;Max_cycle;Signal;HPM_P1;HPM_P2
2022/05/12 00:00:12;;;;;;;4.27;1.50;;;;;;;;;;5071151;28;20249;-79
2022/05/12 00:02:39;;;;;;;9.67;1.90;;;;;;;;;;5065954;28;20207;-77
2022/05/12 00:05:07;;;;;;;5.47;1.90;;;;;;;;;;5064857;28;20301;-78
2022/05/12 00:07:34;;;;;;;4.93;1.50;;;;;;;;;;5063193;28;20206;-78
2022/05/12 00:10:03;;;;;;;6.67;1.43;;;;;;;;;;5065597;28;20209;-78
2022/05/12 00:12:31;;;;;;;3.83;1.53;;;;;;;;;;5069773;28;20223;-79
2022/05/12 00:14:58;;;;;;;4.73;1.50;;;;;;;;;;5068267;28;20706;-78
2022/05/12 00:17:25;;;;;;;3.27;1.57;;;;;;;;;;5063989;28;20222;-77
2022/05/12 00:19:52;;;;;;;3.27;1.43;;;;;;;;;;5063809;28;20206;-78
2022/05/12 00:22:20;;;;;;;8.23;1.80;;;;;;;;;;5068528;28;20582;-78
2022/05/12 00:24:47;;;;;;;3.20;1.57;;;;;;;;;;5070237;28;20314;-78
2022/05/12 00:27:15;;;;;;;6.80;1.40;;;;;;;;;;5071138;28;20203;-78
2022/05/12 00:29:45;;;;;;;4.47;1.50;;;;;;;;;;5069322;28;20203;-78
2022/05/12 00:32:12;;;;;;;4.93;1.73;;;;;;;;;;5072085;28;20202;-77
2022/05/12 00:34:39;;;;;;;2.53;1.60;;;;;;;;;;5067853;28;20241;-77
2022/05/12 00:37:08;;;;;;;8.13;1.73;;;;;;;;;;5069586;28;20344;-79
2022/05/12 00:39:36;;;;;;;13.87;2.10;;;;;;;;;;5068336;28;20289;-77
2022/05/12 00:42:03;;;;;;;9.10;2.33;;;;;;;;;;5069136;28;20226;-77
2022/05/12 00:44:31;;;;;;;7.87;1.83;;;;;;;;;;5068533;28;20215;-79
2022/05/12 00:46:59;;;;;;;9.67;2.27;;;;;;;;;;5068153;28;20660;-78
2022/05/12 00:49:28;;;;;;;15.23;2.30;;;;;;;;;;5072779;28;20221;-79
2022/05/12 00:51:58;;;;;;;7.87;1.70;;;;;;;;;;5075616;28;20218;-79
2022/05/12 00:54:26;;;;;;;8.07;2.00;;;;;;;;;;5069745;28;20221;-80
2022/05/12 00:56:54;;;;;;;9.20;2.30;;;;;;;;;;5074020;28;20245;-79
2022/05/12 00:59:24;;;;;;;6.10;2.20;;;;;;;;;;5069620;28;20207;-79
2022/05/12 01:01:53;;;;;;;9.13;2.63;;;;;;;;;;5075202;28;20278;-79
2022/05/12 01:04:22;;;;;;;16.57;3.00;;;;;;;;;;5074810;28;20240;-79
2022/05/12 01:06:49;;;;;;;12.13;2.30;;;;;;;;;;5083929;28;20199;-78
2022/05/12 01:09:16;;;;;;;11.00;2.20;;;;;;;;;;5081553;28;20284;-80
2022/05/12 01:11:44;;;;;;;7.57;2.07;;;;;;;;;;5074351;28;20411;-78
2022/05/12 01:14:11;;;;;;;7.83;1.70;;;;;;;;;;5066319;28;20496;-78
2022/05/12 01:16:43;;;;;;;7.77;1.50;;;;;;;;;;5077556;28;20285;-78
2022/05/12 01:19:14;;;;;;;10.43;1.87;;;;;;;;;;5068851;28;20592;-80
2022/05/12 01:21:41;;;;;;;6.00;1.70;;;;;;;;;;5069914;28;20671;-80
2022/05/12 01:24:10;;;;;;;5.83;1.90;;;;;;;;;;5071710;28;20233;-79
2022/05/12 01:26:37;;;;;;;7.53;1.40;;;;;;;;;;5074819;28;20198;-79
2022/05/12 01:29:05;;;;;;;4.60;1.37;;;;;;;;;;5071056;28;20238;-77
2022/05/12 01:31:33;;;;;;;5.20;1.60;;;;;;;;;;5070100;28;20301;-78
2022/05/12 01:34:01;;;;;;;6.83;1.60;;;;;;;;;;5071617;28;21133;-79
2022/05/12 01:36:28;;;;;;;6.23;1.57;;;;;;;;;;5070111;28;20232;-80
2022/05/12 01:38:55;;;;;;;6.80;1.20;;;;;;;;;;5072966;28;20681;-81
2022/05/12 01:41:24;;;;;;;5.97;1.50;;;;;;;;;;5072781;28;20700;-80
2022/05/12 01:43:51;;;;;;;5.00;1.23;;;;;;;;;;5072120;28;20226;-80
2022/05/12 01:46:19;;;;;;;2.83;1.20;;;;;;;;;;5071364;28;20202;-81
2022/05/12 01:48:46;;;;;;;2.47;1.23;;;;;;;;;;5068080;28;20658;-81
2022/05/12 01:51:13;;;;;;;6.43;1.50;;;;;;;;;;5072643;28;20300;-81
2022/05/12 01:53:40;;;;;;;4.53;1.40;;;;;;;;;;5076915;28;20237;-80
2022/05/12 01:56:08;;;;;;;3.07;1.20;;;;;;;;;;5072471;28;20228;-81
2022/05/12 01:58:37;;;;;;;9.97;1.40;;;;;;;;;;5071682;28;20210;-80
2022/05/12 02:01:04;;;;;;;2.77;1.17;;;;;;;;;;5069281;28;20206;-80
2022/05/12 02:03:31;;;;;;;3.27;1.40;;;;;;;;;;5068552;28;20228;-80
2022/05/12 02:05:58;;;;;;;4.87;1.43;;;;;;;;;;5071846;28;20666;-80
2022/05/12 02:08:25;;;;;;;8.73;1.60;;;;;;;;;;5071092;28;20199;-80
2022/05/12 02:10:53;;;;;;;5.37;1.70;;;;;;;;;;5066234;28;20210;-80
2022/05/12 02:13:25;;;;;;;4.93;1.30;;;;;;;;;;5069528;28;20226;-81
2022/05/12 02:15:54;;;;;;;7.70;1.30;;;;;;;;;;5070017;28;20203;-81
2022/05/12 02:18:21;;;;;;;4.20;1.67;;;;;;;;;;5069897;28;20199;-80
2022/05/12 02:20:49;;;;;;;5.20;2.20;;;;;;;;;;5065817;28;20214;-81
2022/05/12 02:23:16;;;;;;;3.37;1.40;;;;;;;;;;5067529;28;20309;-81
2022/05/12 02:25:43;;;;;;;4.57;1.40;;;25.10;99.90;;;;;;5063959;28;20274;-80
2022/05/12 02:28:14;;;;;;;8.87;1.70;;;15.80;99.90;;;;;;5070235;28;20199;-81
2022/05/12 02:30:41;;;;;;;5.60;1.67;;;15.50;99.90;;;;;;5067942;28;20214;-80
2022/05/12 02:33:10;;;;;;;3.97;1.70;;;15.50;99.90;;;;;;5072009;28;20258;-80
2022/05/12 02:35:38;;;;;;;2.63;1.53;;;15.40;99.90;;;;;;5077623;22;20302;-77
2022/05/12 02:38:06;;;;;;;3.87;1.67;;;15.30;99.90;;;;;;5048481;22;20237;-73
2022/05/12 02:40:33;;;;;;;3.10;1.70;;;15.20;99.90;;;;;;5030259;28;20218;-74
2022/05/12 02:43:00;;;;;;;5.70;1.60;;;15.20;99.90;;;;;;5031947;28;20458;-72
2022/05/12 02:45:28;;;;;;;6.30;2.00;;;15.20;99.90;;;;;;5029661;28;20638;-72
2022/05/12 02:47:55;;;;;;;7.93;1.60;;;15.10;99.90;;;;;;5031045;28;20229;-72
2022/05/12 02:50:24;;;;;;;9.23;1.97;;;15.10;99.90;;;;;;5032923;28;20207;-73
2022/05/12 02:52:51;;;;;;;4.93;1.80;;;15.10;99.90;;;;;;5034584;28;20787;-73
2022/05/12 02:55:18;;;;;;;4.60;1.80;;;15.10;99.90;;;;;;5034584;28;20672;-72
2022/05/12 02:57:45;;;;;;;11.97;1.87;;;15.20;99.90;;;;;;5035934;28;20724;-73
2022/05/12 03:00:17;;;;;;;7.80;2.57;;;15.20;99.90;;;;;;5035633;28;20206;-73
2022/05/12 03:02:44;;;;;;;8.73;3.27;;;15.20;99.90;;;;;;5031470;28;20665;-74
2022/05/12 03:05:12;;;;;;;9.37;3.73;;;15.20;99.90;;;;;;5034006;28;20203;-72
2022/05/12 03:07:40;;;;;;;9.43;3.33;;;15.30;99.90;;;;;;5033537;28;20310;-75
2022/05/12 03:10:09;;;;;;;5.40;3.20;;;15.30;99.90;;;;;;5033031;28;20661;-76
2022/05/12 03:12:36;;;;;;;7.13;3.40;;;15.30;99.90;;;;;;5029212;28;20199;-73
2022/05/12 03:15:03;;;;;;;8.57;3.20;;;15.20;99.90;;;;;;5031538;28;20207;-74
2022/05/12 03:17:30;;;;;;;6.47;3.13;;;15.30;99.90;;;;;;5038321;28;20317;-74
2022/05/12 03:19:57;;;;;;;7.60;3.87;;;15.20;99.90;;;;;;5030839;28;21406;-74
2022/05/12 03:22:24;;;;;;;12.07;4.30;;;15.20;99.90;;;;;;5033136;28;20662;-74
2022/05/12 03:24:52;;;;;;;7.63;3.90;;;15.10;99.90;;;;;;5034654;28;20308;-74
2022/05/12 03:27:19;;;;;;;9.50;3.90;;;15.10;99.90;;;;;;5033579;28;20223;-74
2022/05/12 03:29:47;;;;;;;12.20;4.20;;;15.10;99.90;;;;;;5034930;28;20195;-74
2022/05/12 03:32:13;;;;;;;8.93;4.10;;;15.00;99.90;;;;;;5037827;28;20211;-75
2022/05/12 03:34:41;;;;;;;6.60;3.70;;;14.90;99.90;;;;;;5034366;28;20206;-75
2022/05/12 03:37:09;;;;;;;10.03;3.87;;;14.90;99.90;;;;;;5036503;28;20262;-74
2022/05/12 03:39:39;;;;;;;12.93;3.90;;;14.80;99.90;;;;;;5032607;28;20657;-75
2022/05/12 03:42:08;;;;;;;10.13;4.10;;;14.80;99.90;;;;;;5032785;28;20589;-75
2022/05/12 03:44:50;;;;;;;6.93;3.60;;;14.70;99.90;;;;;;5031915;28;20207;-75
2022/05/12 03:47:20;;;;;;;8.37;4.13;;;14.60;99.90;;;;;;5032771;28;20648;-74
2022/05/12 03:49:47;;;;;;;6.80;4.30;;;14.50;99.90;;;;;;5032141;28;20290;-74
2022/05/12 03:52:14;;;;;;;9.47;4.60;;;14.50;99.90;;;;;;5031668;28;20206;-74
2022/05/12 03:54:42;;;;;;;10.97;4.73;;;14.40;99.90;;;;;;5033297;28;20302;-73
2022/05/12 03:57:10;;;;;;;6.50;4.20;;;14.40;99.90;;;;;;5033906;28;20314;-73
2022/05/12 03:59:39;;;;;;;9.93;4.30;;;14.30;99.90;;;;;;5031812;28;20204;-74
2022/05/12 04:02:06;;;;;;;10.07;4.40;;;14.30;99.90;;;;;;5035008;28;20211;-76
2022/05/12 04:04:33;;;;;;;9.33;4.23;;;14.40;99.90;;;;;;5035038;28;20302;-75
2022/05/12 04:07:00;;;;;;;11.03;4.97;;;14.40;99.90;;;;;;5035680;28;20591;-75
2022/05/12 04:09:27;;;;;;;9.57;4.33;;;14.40;99.90;;;;;;5034912;28;20582;-73
2022/05/12 04:11:54;;;;;;;5.93;3.70;;;14.60;99.90;;;;;;5030184;28;20196;-75
2022/05/12 04:14:24;;;;;;;8.03;3.10;;;14.60;99.90;;;;;;5031712;28;20205;-73
2022/05/12 04:16:51;;;;;;;8.07;3.37;;;14.80;99.90;;;;;;5036039;28;20237;-74
2022/05/12 04:19:18;;;;;;;4.90;2.83;;;14.80;99.90;;;;;;5035195;28;20203;-76
2022/05/12 04:21:44;;;;;;;6.27;2.57;;;14.80;99.90;;;;;;5032276;28;20196;-75
2022/05/12 04:24:11;;;;;;;7.73;2.90;;;14.80;99.90;;;;;;5035704;28;20211;-74
2022/05/12 04:26:40;;;;;;;4.97;2.80;;;14.80;99.90;;;;;;5034581;28;20684;-76
2022/05/12 04:29:09;;;;;;;7.70;2.70;;;15.10;99.90;;;;;;5033895;28;20207;-76
2022/05/12 04:31:37;;;;;;;8.63;2.93;;;15.80;99.90;;;;;;5032619;28;20200;-75
2022/05/12 04:36:49;;;;;;;5.10;3.07;;;16.10;99.90;;;;;;5032069;28;20808;-76
2022/05/12 04:39:17;;;;;;;6.30;2.63;;;16.60;99.90;;;;;;5035568;28;20207;-74
2022/05/12 04:41:44;;;;;;;5.37;2.33;;;16.60;99.90;;;;;;5032862;28;20207;-74
2022/05/12 04:44:12;;;;;;;5.40;2.43;;;16.70;99.90;;;;;;5033897;28;20218;-77
2022/05/12 04:46:42;;;;;;;5.33;2.17;;;16.70;99.90;;;;;;5035390;28;20230;-76
2022/05/12 04:49:13;;;;;;;5.70;2.40;;;17.10;99.90;;;;;;5035051;28;20289;-75
2022/05/12 04:51:41;;;;;;;6.47;2.40;;;17.60;99.90;;;;;;5036057;28;20207;-74
2022/05/12 04:54:09;;;;;;;3.63;2.07;;;17.70;99.90;;;;;;5034905;28;20206;-75
2022/05/12 04:56:36;;;;;;;4.93;2.00;;;18.60;99.90;;;;;;5035045;28;21164;-76
2022/05/12 04:59:04;;;;;;;3.93;1.77;;;19.30;99.90;;;;;;5031578;28;20207;-74
2022/05/12 05:01:31;;;;;;;3.13;1.70;;;19.50;99.90;;;;;;5035691;28;20213;-77
2022/05/12 05:04:00;;;;;;;5.17;1.97;;;19.50;99.90;;;;;;5033558;28;20298;-76
2022/05/12 05:06:27;;;;;;;6.80;1.93;;;;;;;;;;5034114;28;20254;-76
2022/05/12 05:08:54;;;;;;;3.63;1.90;;;;;;;;;;5031301;28;20228;-77
2022/05/12 05:11:22;;;;;;;2.80;1.40;;;;;;;;;;5034049;28;20203;-75
2022/05/12 05:13:49;;;;;;;4.03;1.60;;;;;;;;;;5036545;28;20231;-75
2022/05/12 05:16:16;;;;;;;4.53;1.87;;;;;;;;;;5030075;28;20224;-76
2022/05/12 05:18:43;;;;;;;4.03;1.70;;;;;;;;;;5031741;28;20292;-76
2022/05/12 05:21:12;;;;;;;5.67;1.67;;;;;;;;;;5032721;28;20678;-77
2022/05/12 05:23:39;;;;;;;2.47;1.40;;;;;;;;;;5034321;28;20203;-75
2022/05/12 05:26:07;;;;;;;5.93;1.67;;;;;;;;;;5033653;28;20207;-76
2022/05/12 05:28:35;;;;;;;3.13;1.43;;;;;;;;;;5034337;28;20748;-76
2022/05/12 05:31:02;;;;;;;5.87;1.43;;;;;;;;;;5033428;28;20217;-76
2022/05/12 05:33:29;;;;;;;10.70;1.60;;;;;;;;;;5033923;28;20699;-77
2022/05/12 05:35:57;;;;;;;4.17;1.30;;;;;;;;;;5027855;28;20673;-76
2022/05/12 05:38:25;;;;;;;3.53;1.43;;;;;;;;;;5030902;28;20546;-76
2022/05/12 05:40:52;;;;;;;5.87;1.67;;;;;;;;;;5027980;28;22312;-76
2022/05/12 05:43:20;;;;;;;3.50;1.50;;;;;;;;;;5021427;28;20531;-76
2022/05/12 05:45:48;;;;;;;6.80;1.53;;;;;;;;;;5029650;28;20250;-76
2022/05/12 05:48:15;;;;;;;4.47;1.53;;;;;;;;;;5034358;28;20613;-76
2022/05/12 05:53:30;;;;;;;5.27;1.37;;;;;;;;;;5035646;28;20216;-76
2022/05/12 05:55:58;;;;;;;4.13;1.50;;;;;;;;;;5034337;28;20289;-76
2022/05/12 05:58:26;;;;;;;2.73;1.37;;;;;;;;;;5033319;28;20204;-76
2022/05/12 06:00:54;;;;;;;4.30;1.60;;;;;;;;;;5033181;28;20303;-77
2022/05/12 06:03:21;;;;;;;2.83;1.60;;;;;;;;;;5036502;28;20200;-75
2022/05/12 06:05:48;;;;;;;5.07;1.53;;;;;;;;;;5033719;28;20203;-76
2022/05/12 06:08:17;;;;;;;5.93;1.73;;;;;;;;;;5035683;28;20231;-76
2022/05/12 06:10:46;;;;;;;4.27;1.93;;;;;;;;;;5029880;28;20209;-75
2022/05/12 06:13:13;;;;;;;6.70;1.80;;;;;;;;;;5034914;28;20199;-75
2022/05/12 06:15:41;;;;;;;4.27;1.70;;;;;;;;;;5035266;28;20291;-76
2022/05/12 06:18:08;;;;;;;6.73;2.30;;;;;;;;;;5034223;28;20230;-75
2022/05/12 06:20:36;;;;;;;7.97;1.93;;;;;;;;;;5031894;28;20293;-75
2022/05/12 06:23:03;;;;;;;8.30;2.00;;;;;;;;;;5032529;28;20212;-76
2022/05/12 06:25:30;;;;;;;4.13;2.17;;;;;;;;;;5029034;28;20212;-75
2022/05/12 06:27:58;;;;;;;4.47;2.07;;;;;;;;;;5034287;28;20690;-75
2022/05/12 06:30:27;;;;;;;3.07;2.00;;;;;;;;;;5029966;28;20212;-76
2022/05/12 06:32:56;;;;;;;5.77;2.10;;;;;;;;;;5024502;28;20206;-76
2022/05/12 06:35:23;;;;;;;3.43;1.97;;;;;;;;;;5025388;28;20685;-75
2022/05/12 06:37:51;;;;;;;4.50;1.90;;;;;;;;;;5021354;28;20717;-76
2022/05/12 06:40:18;;;;;;;4.13;2.10;;;;;;;;;;5032023;28;20204;-75
2022/05/12 06:42:45;;;;;;;8.53;1.90;;;;;;;;;;5028475;28;20672;-76
2022/05/12 06:45:16;;;;;;;5.87;1.87;;;;;;;;;;5027907;28;20288;-75
2022/05/12 06:47:48;;;;;;;6.97;1.90;;;;;;;;;;5026353;28;20223;-76
2022/05/12 06:50:15;;;;;;;3.57;1.73;;;;;;;;;;5026620;28;20305;-76
2022/05/12 06:52:43;;;;;;;4.70;1.80;;;;;;;;;;5029819;28;20196;-76
2022/05/12 06:55:11;;;;;;;5.33;1.20;;;;;;;;;;5027006;28;20199;-76
2022/05/12 06:57:38;;;;;;;2.13;1.00;;;;;;;;;;5025843;28;20434;-76
2022/05/12 07:00:06;;;;;;;6.50;1.50;;;;;;;;;;5027732;28;20199;-76
2022/05/12 07:02:34;;;;;;;6.50;1.50;;;;;;;;;;5026864;28;20610;-76
2022/05/12 07:05:01;;;;;;;3.53;1.37;;;;;;;;;;5027631;28;20208;-76
2022/05/12 07:07:29;;;;;;;3.53;1.40;;;;;;;;;;5019625;28;20301;-76
2022/05/12 07:09:56;;;;;;;3.50;1.20;;;;;;;;;;5032683;28;20666;-76
2022/05/12 07:12:24;;;;;;;7.67;1.17;;;;;;;;;;5033007;28;20283;-77
2022/05/12 07:14:52;;;;;;;4.93;1.17;;;;;;;;;;5028472;28;20293;-75
2022/05/12 07:17:20;;;;;;;4.33;1.23;;;;;;;;;;5029357;28;20304;-74
2022/05/12 07:19:49;;;;;;;5.13;1.30;;;;;;;;;;5030495;28;20583;-74
2022/05/12 07:27:46;;;;;;;4.03;1.00;;;;;;;;;;5033914;28;20762;-74
2022/05/12 07:30:13;;;;;;;3.87;1.17;;;;;;;;;;5034523;28;20278;-75
2022/05/12 07:32:41;;;;;;;5.87;1.50;;;;;;;;;;5031555;28;20204;-74
2022/05/12 07:35:09;;;;;;;4.23;1.10;;;;;;;;;;5028729;28;20323;-76
2022/05/12 07:37:37;;;;;;;3.17;1.13;;;;;;;;;;5028905;28;20232;-75
2022/05/12 07:40:05;;;;;;;3.87;1.17;;;;;;;;;;5035431;28;20291;-75
2022/05/12 07:42:32;;;;;;;3.33;0.97;;;;;;;;;;5037364;28;20217;-77
2022/05/12 07:44:59;;;;;;;3.93;1.03;;;;;;;;;;5031021;28;20212;-76
2022/05/12 07:47:27;;;;;;;4.93;0.70;;;;;;;;;;5030140;28;20246;-76
2022/05/12 07:49:55;;;;;;;6.27;1.13;;;;;;;;;;5027771;28;20224;-76
2022/05/12 07:52:26;;;;;;;3.53;1.10;;;;;;;;;;5033501;28;20303;-77
2022/05/12 07:54:53;;;;;;;3.77;1.00;;;;;;;;;;5039185;28;20206;-75
2022/05/12 07:57:21;;;;;;;3.57;1.17;;;;;;;;;;5037952;28;20232;-75
2022/05/12 07:59:48;;;;;;;5.03;1.20;;;;;;;;;;5034122;28;20207;-76
2022/05/12 08:02:16;;;;;;;3.43;1.10;;;;;;;;;;5035615;28;20576;-76
2022/05/12 08:04:43;;;;;;;5.67;1.50;;;;;;;;;;5032334;28;20416;-76
2022/05/12 08:07:11;;;;;;;5.33;1.00;;;;;;;;;;5035052;28;20227;-75
2022/05/12 08:09:39;;;;;;;2.67;1.13;;;;;;;;;;5032998;28;20234;-75
2022/05/12 08:12:06;;;;;;;2.00;1.00;;;;;;;;;;5032650;28;20712;-76
2022/05/12 08:14:33;;;;;;;5.27;1.20;;;;;;;;;;5037206;28;20217;-76
2022/05/12 08:17:01;;;;;;;3.50;1.07;;;;;;;;;;5032375;28;20326;-76
2022/05/12 08:19:29;;;;;;;3.23;1.20;;;;;;;;;;5032315;28;20360;-76
2022/05/12 08:21:56;;;;;;;5.87;1.30;;;;;;;;;;5032689;28;20266;-76
2022/05/12 08:24:23;;;;;;;4.53;1.10;;;;;;;;;;5036482;28;20204;-76
2022/05/12 08:26:52;;;;;;;6.90;1.10;;;;;;;;;;5035916;28;20220;-75
2022/05/12 08:29:19;;;;;;;3.57;0.80;;;;;;;;;;5031592;28;20723;-76
2022/05/12 08:31:46;;;;;;;7.37;1.00;;;;;;;;;;5032899;28;20200;-75
2022/05/12 08:34:13;;;;;;;5.30;1.00;;;;;;;;;;5036207;28;20549;-76
2022/05/12 08:36:40;;;;;;;3.93;0.87;;;;;;;;;;5031956;28;20362;-75
2022/05/12 08:39:08;;;;;;;5.03;1.10;;;;;;;;;;5119015;22;20237;-80
2022/05/12 08:41:42;;;;;;;6.97;1.33;;;;;;;;;;5070580;28;20197;-81
2022/05/12 08:44:13;;;;;;;7.53;1.73;;;;;;;;;;5066272;28;20195;-81
2022/05/12 08:46:42;;;;;;;4.37;1.07;;;;;;;;;;5070828;28;20650;-80
2022/05/12 08:49:14;;;;;;;4.50;1.03;;;;;;;;;;5046751;28;20227;-79
2022/05/12 08:51:42;;;;;;;2.40;0.83;;;;;;;;;;5049043;28;20209;-79
2022/05/12 08:54:13;;;;;;;3.00;0.80;;;;;;;;;;5047492;28;20260;-79
2022/05/12 08:56:41;;;;;;;6.73;1.20;;;;;;;;;;5047983;28;20299;-79
2022/05/12 08:59:09;;;;;;;4.13;0.90;;;;;;;;;;5053162;28;20259;-80
2022/05/12 09:01:41;;;;;;;3.20;1.10;;;;;;;;;;5048311;28;20203;-81
2022/05/12 09:04:28;;;;;;;3.13;1.00;;;;;;;;;;5048587;28;20218;-80
2022/05/12 09:07:00;;;;;;;1.87;0.80;;;;;;;;;;5052477;28;20230;-82
2022/05/12 09:09:30;;;;;;;5.70;1.00;;;;;;;;;;5050337;28;20202;-81
2022/05/12 09:12:03;;;;;;;3.30;1.17;;;;;;;;;;5049189;28;20293;-82
2022/05/12 09:14:34;;;;;;;2.77;1.10;;;;;;;;;;5048216;28;20306;-80
2022/05/12 09:17:03;;;;;;;4.43;1.10;;;;;;;;;;5053163;28;20217;-78
2022/05/12 09:19:30;;;;;;;2.23;0.70;;;;;;;;;;5049500;28;20229;-81
2022/05/12 09:21:57;;;;;;;6.50;1.10;;;;;;;;;;5052598;28;20206;-81
2022/05/12 09:24:25;;;;;;;5.37;1.00;;;;;;;;;;5054722;28;20203;-82
2022/05/12 09:26:53;;;;;;;9.20;1.03;;;;;;;;;;5052327;28;20199;-82
2022/05/12 09:29:22;;;;;;;2.30;1.00;;;;;;;;;;5048443;28;20605;-81
2022/05/12 09:31:50;;;;;;;3.03;1.00;;;;;;;;;;5051343;28;20272;-80
2022/05/12 09:34:24;;;;;;;4.07;1.33;;;;;;;;;;5047390;28;20211;-80
2022/05/12 09:36:51;;;;;;;5.53;1.10;;;;;;;;;;5049268;28;20614;-79
2022/05/12 09:39:39;;;;;;;3.60;1.17;;;;;;;;;;5047564;28;20223;-80
2022/05/12 09:42:08;;;;;;;2.37;0.90;;;;;;;;;;5056222;28;20623;-81
2022/05/12 09:44:35;;;;;;;1.80;1.07;;;;;;;;;;5051519;28;20563;-79
2022/05/12 09:47:06;;;;;;;7.07;1.00;;;;;;;;;;5045732;28;20917;-79
2022/05/12 09:49:36;;;;;;;2.97;1.10;;;;;;;;;;5046594;28;20198;-80
2022/05/12 09:52:19;;;;;;;7.70;1.40;;;;;;;;;;5047984;28;20221;-79
2022/05/12 09:54:47;;;;;;;2.43;1.00;;;;;;;;;;5049367;28;20218;-81
2022/05/12 09:57:17;;;;;;;3.97;1.13;;;;;;;;;;5050704;28;20234;-81
2022/05/12 09:59:45;;;;;;;3.33;1.00;;;;;;;;;;5049101;28;20284;-80
2022/05/12 10:07:53;;;;;;;5.73;1.40;;;;;;;;;;5046216;28;20230;-78
2022/05/12 10:08:02;;;;;;;3.30;1.10;;;;;;;;;;5045469;28;20716;-80
2022/05/12 10:10:30;;;;;;;5.20;1.43;;;;;;;;;;5044953;28;20413;-80
2022/05/12 10:12:58;;;;;;;7.60;1.40;;;;;;;;;;5048196;28;20207;-80
2022/05/12 10:15:29;;;;;;;5.23;1.80;;;;;;;;;;5048814;28;20224;-81
2022/05/12 10:17:57;;;;;;;7.03;1.20;;;;;;;;;;5046491;28;20227;-79
2022/05/12 10:20:26;;;;;;;4.40;1.40;;;;;;;;;;5043785;28;20230;-78
2022/05/12 10:22:56;;;;;;;5.77;1.40;;;;;;;;;;5054478;28;20282;-81
2022/05/12 10:25:28;;;;;;;5.73;1.20;;;;;;;;;;5043894;28;20207;-80
2022/05/12 10:27:59;;;;;;;2.23;1.17;;;;;;;;;;5044072;28;20793;-81
2022/05/12 10:30:39;;;;;;;3.50;0.97;;;;;;;;;;5048895;28;20199;-80
2022/05/12 10:33:17;;;;;;;4.97;1.40;;;;;;;;;;5049111;28;20299;-80
2022/05/12 10:35:49;;;;;;;3.97;1.10;;;;;;;;;;5043606;28;20256;-79
2022/05/12 10:38:21;;;;;;;4.23;1.33;;;;;;;;;;5051948;28;20242;-79
2022/05/12 10:40:52;;;;;;;6.70;1.30;;;;;;;;;;5046571;28;20656;-79
2022/05/12 10:43:38;;;;;;;3.80;1.30;;;;;;;;;;5046686;28;20290;-79
2022/05/12 10:46:11;;;;;;;5.83;1.33;;;;;;;;;;5050202;28;20594;-80
2022/05/12 10:48:42;;;;;;;3.90;1.27;;;;;;;;;;5051448;28;20233;-80
2022/05/12 10:51:16;;;;;;;3.50;1.13;;;;;;;;;;5048033;28;20236;-79
2022/05/12 10:53:50;;;;;;;3.70;1.40;;;;;;;;;;5043140;28;20214;-79
2022/05/12 10:56:24;;;;;;;4.50;1.20;;;;;;;;;;5047208;28;20214;-79
2022/05/12 10:58:54;;;;;;;2.70;1.17;;;;;;;;;;5046774;28;20250;-79
2022/05/12 11:01:24;;;;;;;5.00;1.97;;;;;;;;;;5050978;28;20742;-78
2022/05/12 11:03:56;;;;;;;1.73;1.00;;;;;;;;;;5046305;28;20643;-78
2022/05/12 11:06:26;;;;;;;4.50;1.07;;;;;;;;;;5046585;28;20199;-80
2022/05/12 11:08:55;;;;;;;4.67;1.30;;;;;;;;;;5047946;28;20218;-81
2022/05/12 11:11:24;;;;;;;6.47;1.47;;;;;;;;;;5050345;28;20203;-81
2022/05/12 11:13:53;;;;;;;6.20;1.20;;;;;;;;;;5051456;28;20297;-82
2022/05/12 11:16:24;;;;;;;3.93;1.20;;;;;;;;;;5044920;28;20210;-81
2022/05/12 11:18:55;;;;;;;3.13;1.33;;;;;;;;;;5045058;28;20278;-82
2022/05/12 11:21:25;;;;;;;3.47;1.30;;;;;;;;;;5056374;28;20196;-81
2022/05/12 11:23:59;;;;;;;5.30;1.40;;;;;;;;;;5050826;28;20238;-79
2022/05/12 11:26:36;;;;;;;3.60;1.10;;;;;;;;;;5042856;28;20329;-79
2022/05/12 11:31:56;;;;;;;4.07;1.23;;;;;;;;;;5046709;28;20233;-78
2022/05/12 11:34:25;;;;;;;6.27;1.20;;;;;;;;;;5048752;28;20303;-79
2022/05/12 11:36:54;;;;;;;5.57;1.30;;;;;;;;;;5046023;28;20565;-79
2022/05/12 11:39:23;;;;;;;5.63;1.40;;;;;;;;;;5047038;28;20223;-80
2022/05/12 11:42:05;;;;;;;2.80;1.40;;;;;;;;;;5052747;28;20286;-78
2022/05/12 11:44:39;;;;;;;7.50;1.63;;;;;;;;;;5048708;28;20222;-79
2022/05/12 11:47:20;;;;;;;4.57;1.60;;;;;;;;;;5051838;28;20226;-78
2022/05/12 11:50:01;;;;;;;2.97;1.30;;;;;;;;;;5040579;28;20316;-79
2022/05/12 11:52:34;;;;;;;4.20;1.40;;;;;;;;;;5042776;28;20726;-81
2022/05/12 11:55:06;;;;;;;2.10;1.30;;;;;;;;;;5053418;28;20213;-83
2022/05/12 11:57:37;;;;;;;3.03;1.30;;;;;;;;;;5054321;28;20313;-82
2022/05/12 12:00:08;;;;;;;5.60;1.50;;;;;;;;;;5050307;28;20222;-81
2022/05/12 12:02:44;;;;;;;2.73;1.40;;;;;;;;;;5042297;28;20599;-80
2022/05/12 12:05:12;;;;;;;5.97;1.70;;;;;;;;;;5043056;28;20210;-80
2022/05/12 12:07:58;;;;;;;3.13;1.33;;;;;;;;;;5040806;28;20223;-82
2022/05/12 12:10:34;;;;;;;5.83;1.50;;;;;;;;;;5039966;28;20634;-79
2022/05/12 12:13:03;;;;;;;5.10;1.20;;;;;;;;;;5046379;28;20209;-81
2022/05/12 12:15:40;;;;;;;6.00;2.10;;;;;;;;;;5050152;28;20234;-81
2022/05/12 12:18:24;;;;;;;4.60;1.33;;;;;;;;;;5047297;28;20699;-80
2022/05/12 12:20:53;;;;;;;8.40;1.43;;;;;;;;;;5044136;28;20234;-81
2022/05/12 12:23:24;;;;;;;5.63;1.50;;;;;;;;;;5044003;28;20211;-82
2022/05/12 12:25:59;;;;;;;4.33;1.93;;;;;;;;;;5046428;28;20203;-80
2022/05/12 12:28:29;;;;;;;4.20;1.40;;;;;;;;;;5045329;28;20234;-80
2022/05/12 12:31:05;;;;;;;5.97;1.40;;;;;;;;;;5046772;28;20254;-80
2022/05/12 12:34:03;;;;;;;6.33;1.50;;;;;;;;;;5047694;28;20205;-81
2022/05/12 12:36:51;;;;;;;4.87;1.50;;;;;;;;;;5051524;28;20645;-80
2022/05/12 12:39:30;;;;;;;4.60;1.70;;;;;;;;;;5043317;28;21734;-80
2022/05/12 12:42:06;;;;;;;4.00;1.30;;;;;;;;;;5053189;28;20202;-81
2022/05/12 12:44:34;;;;;;;4.20;1.50;;;;;;;;;;5053058;28;20264;-80
2022/05/12 12:47:06;;;;;;;3.23;1.40;;;;;;;;;;5055585;28;20274;-81
2022/05/12 12:49:34;;;;;;;4.03;1.33;;;;;;;;;;5053074;28;20674;-80
2022/05/12 12:52:06;;;;;;;3.73;1.07;;;;;;;;;;5054182;28;20654;-81
2022/05/12 12:57:23;;;;;;;3.27;1.30;;;;;;;;;;5056555;28;20736;-81
2022/05/12 12:59:52;;;;;;;6.73;1.50;;;;;;;;;;5054666;28;20306;-79
2022/05/12 13:02:31;;;;;;;4.60;1.53;;;;;;;;;;5057325;28;20229;-81
2022/05/12 13:04:59;;;;;;;4.47;1.57;;;;;;;;;;5058933;28;20203;-80
2022/05/12 13:07:28;;;;;;;2.70;1.30;;;;;;;;;;5056413;28;20794;-80
2022/05/12 13:09:56;;;;;;;3.47;1.20;;;;;;;;;;5056347;28;20297;-83
2022/05/12 13:12:26;;;;;;;3.90;1.30;;;;;;;;;;5055646;28;20233;-81
2022/05/12 13:14:54;;;;;;;2.77;1.40;;;;;;;;;;5057043;28;20203;-80
2022/05/12 13:17:22;;;;;;;6.00;1.37;;;;;;;;;;5052740;28;20223;-83
2022/05/12 13:19:49;;;;;;;4.83;1.50;;;;;;;;;;5050206;28;20226;-81
2022/05/12 13:22:27;;;;;;;6.77;1.50;;;;;;;;;;5055213;28;20294;-82
2022/05/12 13:24:54;;;;;;;8.40;1.60;;;;;;;;;;5050591;28;20226;-79
2022/05/12 13:27:24;;;;;;;6.43;1.40;;;;;;;;;;5058103;28;20224;-80
2022/05/12 13:29:53;;;;;;;8.37;1.50;;;;;;;;;;5052090;28;20210;-81
2022/05/12 13:32:35;;;;;;;6.30;1.30;;;;;;;;;;5051691;28;21023;-81
2022/05/12 13:35:08;;;;;;;8.93;1.97;;;;;;;;;;5045491;28;20206;-81
2022/05/12 13:37:35;;;;;;;5.77;1.60;;;;;;;;;;5052469;28;20235;-81
2022/05/12 13:40:03;;;;;;;2.83;1.30;;;;;;;;;;5049093;28;20238;-81
2022/05/12 13:42:32;;;;;;;4.53;1.23;;;;;;;;;;5054503;28;20226;-83
2022/05/12 13:45:02;;;;;;;2.63;1.10;;;;;;;;;;5056277;28;20213;-83
2022/05/12 13:47:33;;;;;;;3.90;1.63;;;;;;;;;;5056095;28;20219;-83
2022/05/12 13:50:02;;;;;;;3.13;1.30;;;;;;;;;;5055926;28;20206;-82
2022/05/12 13:52:40;;;;;;;6.50;1.30;;;;;;;;;;5056755;28;20211;-81
2022/05/12 13:55:09;;;;;;;6.37;1.60;;;;;;;;;;5054610;28;20213;-82
2022/05/12 13:57:38;;;;;;;5.50;1.40;;;;;;;;;;5055088;28;20229;-81
2022/05/12 14:00:19;;;;;;;6.00;1.50;;;;;;;;;;5052836;28;20592;-82
2022/05/12 14:02:47;;;;;;;3.93;1.53;;;;;;;;;;5055009;28;20687;-81
2022/05/12 14:05:16;;;;;;;3.57;1.20;;;;;;;;;;5053958;28;20214;-81
2022/05/12 14:07:44;;;;;;;6.37;1.60;;;;;;;;;;5052067;28;20291;-84
2022/05/12 14:10:16;;;;;;;3.27;1.40;;;;;;;;;;5056201;28;20667;-82
2022/05/12 14:20:56;;;;;;;3.70;1.40;;;;;;;;;;5038574;28;20706;-79
2022/05/12 14:23:23;;;;;;;4.87;1.30;;;;;;;;;;5046587;28;20202;-80
2022/05/12 14:25:50;;;;;;;8.43;1.77;;;;;;;;;;5044122;28;20294;-81
2022/05/12 14:28:17;;;;;;;5.60;1.30;;;;;;;;;;5047319;28;20220;-81
2022/05/12 14:30:45;;;;;;;22.67;1.93;;;;;;;;;;5050078;28;20205;-80
2022/05/12 14:33:13;;;;;;;18.00;2.00;;;;;;;;;;5053888;28;20279;-82
2022/05/12 14:35:41;;;;;;;8.63;1.77;;;;;;;;;;5050516;28;20199;-80
2022/05/12 14:38:09;;;;;;;9.83;1.73;;;;;;;;;;5047814;28;20285;-80
2022/05/12 14:40:36;;;;;;;10.60;1.67;;;;;;;;;;5046151;28;20238;-81
2022/05/12 14:43:04;;;;;;;5.17;1.90;;;;;;;;;;5045831;28;20211;-81
2022/05/12 14:45:31;;;;;;;12.07;1.70;;;;;;;;;;5044100;28;20199;-80
2022/05/12 14:48:01;;;;;;;6.37;1.50;;;;;;;;;;5041843;28;20229;-80
2022/05/12 14:50:29;;;;;;;4.50;1.53;;;;;;;;;;5045607;28;20316;-80
2022/05/12 14:52:56;;;;;;;5.60;1.70;;;;;;;;;;5043694;28;20215;-80
2022/05/12 14:55:24;;;;;;;3.40;1.43;;;;;;;;;;5040856;28;20204;-80
2022/05/12 14:57:51;;;;;;;4.37;1.63;;;;;;;;;;5047545;28;20223;-82